KESN/ESN METAR and TAF weather

Enter ICAO airport designator
Station Type Date Time Source
KESN METAR 2019/07/20 05:20 UTC NOAA

KESN 200520Z AUTO 20003KT 10SM CLR 29/27 A2993 RMK AO2 T02900266


Station Type Date Time Source
KESN Decoded METAR 2019/07/20 05:20 UTC NOAA

Easton / Newman Field, MD, United States (KESN) 38-48N 076-04W
Jul 20, 2019 - 01:20 AM EDT / 2019.07.20 0520 UTC
Wind: from the SSW (200 degrees) at 3 MPH (3 KT):0
Visibility: 10 mile(s):0
Sky conditions: clear
Temperature: 84.2 F (29.0 C)
Dew Point: 79.9 F (26.6 C)
Relative Humidity: 86%
Pressure (altimeter): 29.93 in. Hg (1013 hPa)
ob: KESN 200520Z AUTO 20003KT 10SM CLR 29/27 A2993 RMK AO2 T02900266
cycle: 5

Station Type Date Time Source
KESN TAF UTC NOAA

Error!

Example: see airport list